createdAt,value
2022-12-27T00:00:05.745Z,101659.53
2022-12-27T00:02:41.706Z,101667.66
2022-12-27T00:05:10.307Z,101661.38
2022-12-27T00:07:37.839Z,101664.88
2022-12-27T00:10:06.781Z,101657.28
2022-12-27T00:12:34.759Z,101660.41
2022-12-27T00:15:03.373Z,101650.91
2022-12-27T00:17:31.066Z,101656.09
2022-12-27T00:19:58.556Z,101662.53
2022-12-27T00:22:25.993Z,101664.97
2022-12-27T00:24:54.480Z,101656.00
2022-12-27T00:27:22.015Z,101654.69
2022-12-27T00:29:49.542Z,101652.97
2022-12-27T00:32:17.163Z,101658.22
2022-12-27T00:34:44.764Z,101665.81
2022-12-27T00:37:12.270Z,101665.00
2022-12-27T00:39:39.789Z,101660.47
2022-12-27T00:42:07.350Z,101661.19
2022-12-27T00:44:34.961Z,101673.38
2022-12-27T00:47:02.474Z,101674.09
2022-12-27T00:49:29.957Z,101661.66
2022-12-27T00:51:57.533Z,101655.91
2022-12-27T00:54:25.083Z,101657.75
2022-12-27T00:56:52.709Z,101653.47
2022-12-27T00:59:20.192Z,101653.38
2022-12-27T01:01:47.998Z,101648.22
2022-12-27T01:04:15.846Z,101646.31
2022-12-27T01:06:43.346Z,101646.47
2022-12-27T01:09:10.797Z,101647.44
2022-12-27T01:11:40.331Z,101641.41
2022-12-27T01:14:07.798Z,101643.28
2022-12-27T01:16:35.337Z,101624.06
2022-12-27T01:19:02.933Z,101635.44
2022-12-27T01:21:31.020Z,101630.06
2022-12-27T01:23:59.189Z,101642.53
2022-12-27T01:26:26.843Z,101641.69
2022-12-27T01:28:54.831Z,101640.75
2022-12-27T01:31:28.364Z,101646.84
2022-12-27T01:33:57.904Z,101640.75
2022-12-27T01:36:27.172Z,101646.03
2022-12-27T01:38:55.101Z,101646.81
2022-12-27T01:41:51.054Z,101644.81
2022-12-27T01:44:40.248Z,101652.69
2022-12-27T01:47:14.816Z,101647.06
2022-12-27T01:49:55.949Z,101641.91
2022-12-27T01:52:28.536Z,101636.72
2022-12-27T01:55:00.705Z,101644.19
2022-12-27T01:57:28.789Z,101638.75
2022-12-27T01:59:56.274Z,101642.34
2022-12-27T02:02:24.432Z,101638.97
2022-12-27T02:04:54.161Z,101633.63
2022-12-27T02:07:27.638Z,101637.47
2022-12-27T02:09:58.714Z,101638.88
2022-12-27T02:12:27.075Z,101637.50
2022-12-27T02:14:54.529Z,101637.53
2022-12-27T02:17:30.693Z,101640.25
2022-12-27T02:20:14.426Z,101635.00
2022-12-27T02:23:16.159Z,101627.75
2022-12-27T02:26:01.572Z,101639.63
2022-12-27T02:28:48.175Z,101630.41
2022-12-27T02:31:22.882Z,101627.03
2022-12-27T02:33:53.250Z,101633.31
2022-12-27T02:36:26.373Z,101627.19
2022-12-27T02:38:58.961Z,101640.59
2022-12-27T02:41:46.198Z,101635.22
2022-12-27T02:44:35.995Z,101636.97
2022-12-27T02:47:22.619Z,101636.03
2022-12-27T02:50:08.255Z,101631.41
2022-12-27T02:53:05.863Z,101641.84
2022-12-27T02:56:17.815Z,101635.84
2022-12-27T02:59:12.924Z,101634.81
2022-12-27T03:02:17.841Z,101628.34
2022-12-27T03:05:36.021Z,101615.47
2022-12-27T03:08:28.878Z,101631.16
2022-12-27T03:11:19.312Z,101626.75
2022-12-27T03:14:16.182Z,101619.00
2022-12-27T03:16:55.900Z,101625.78
2022-12-27T03:19:52.811Z,101623.47
2022-12-27T03:22:41.986Z,101631.47
2022-12-27T03:25:30.404Z,101633.97
2022-12-27T03:28:32.139Z,101625.50
2022-12-27T03:31:24.287Z,101633.59
2022-12-27T03:34:04.701Z,101634.56
2022-12-27T03:36:52.783Z,101626.75
2022-12-27T03:39:45.222Z,101632.97
2022-12-27T03:42:53.510Z,101626.69
2022-12-27T03:45:22.043Z,101625.19
2022-12-27T03:47:56.191Z,101629.31
2022-12-27T03:50:34.263Z,101635.84
2022-12-27T03:53:11.797Z,101634.97
2022-12-27T03:55:39.322Z,101632.22
2022-12-27T03:58:06.953Z,101638.50
2022-12-27T04:00:34.406Z,101635.66
2022-12-27T04:03:01.928Z,101633.50
2022-12-27T04:05:29.701Z,101628.22
2022-12-27T04:08:15.392Z,101637.81
2022-12-27T04:11:01.779Z,101635.09
2022-12-27T04:13:47.433Z,101629.59
2022-12-27T04:16:33.059Z,101639.66
2022-12-27T04:19:18.760Z,101644.19
2022-12-27T04:22:04.962Z,101640.66
2022-12-27T04:24:50.745Z,101633.03
2022-12-27T04:27:36.458Z,101639.81
2022-12-27T04:30:22.682Z,101636.19
2022-12-27T04:33:08.919Z,101636.88
2022-12-27T04:35:36.321Z,101634.66
2022-12-27T04:38:03.783Z,101628.22
2022-12-27T04:40:50.279Z,101630.97
2022-12-27T04:43:41.092Z,101630.38
2022-12-27T04:46:45.815Z,101631.72
2022-12-27T04:49:45.231Z,101635.50
2022-12-27T04:52:37.147Z,101639.88
2022-12-27T04:55:25.877Z,101634.63
2022-12-27T04:57:54.319Z,101640.97
2022-12-27T05:00:43.673Z,101636.59
2022-12-27T05:03:19.948Z,101631.44
2022-12-27T05:05:49.213Z,101632.31
2022-12-27T05:08:37.437Z,101634.94
2022-12-27T05:11:25.193Z,101636.69
2022-12-27T05:14:01.950Z,101634.94
2022-12-27T05:16:36.307Z,101643.28
2022-12-27T05:19:06.563Z,101632.34
2022-12-27T05:21:38.330Z,101641.75
2022-12-27T05:24:24.763Z,101638.38
2022-12-27T05:26:56.070Z,101648.56
2022-12-27T05:29:23.575Z,101635.38
2022-12-27T05:31:51.086Z,101648.38
2022-12-27T05:34:18.719Z,101654.78
2022-12-27T05:36:46.207Z,101642.44
2022-12-27T05:39:13.619Z,101656.38
2022-12-27T05:41:41.171Z,101646.06
2022-12-27T05:44:08.759Z,101648.66
2022-12-27T05:46:36.401Z,101647.00
2022-12-27T05:49:04.100Z,101646.38
2022-12-27T05:51:31.684Z,101645.56
2022-12-27T05:53:59.109Z,101643.81
2022-12-27T05:56:26.662Z,101646.34
2022-12-27T05:58:54.400Z,101653.72
2022-12-27T06:01:21.849Z,101652.34
2022-12-27T06:03:49.340Z,101662.56
2022-12-27T06:06:16.803Z,101657.88
2022-12-27T06:08:44.451Z,101661.25
2022-12-27T06:11:17.618Z,101664.06
2022-12-27T06:13:50.117Z,101665.91
2022-12-27T06:16:18.134Z,101675.00
2022-12-27T06:18:45.800Z,101671.38
2022-12-27T06:21:17.311Z,101673.91
2022-12-27T06:23:45.970Z,101672.22
2022-12-27T06:26:25.603Z,101676.59
2022-12-27T06:28:54.416Z,101676.41
2022-12-27T06:31:22.620Z,101684.47
2022-12-27T06:33:51.813Z,101683.69
2022-12-27T06:36:26.440Z,101687.03
2022-12-27T06:38:53.905Z,101699.66
2022-12-27T06:41:21.575Z,101709.38
2022-12-27T06:43:55.059Z,101707.97
2022-12-27T06:46:24.507Z,101697.38
2022-12-27T06:48:52.758Z,101708.19
2022-12-27T06:51:22.852Z,101707.19
2022-12-27T06:53:50.560Z,101705.88
2022-12-27T06:56:20.806Z,101716.69
2022-12-27T06:58:49.602Z,101712.94
2022-12-27T07:01:27.857Z,101719.44
2022-12-27T07:03:58.180Z,101721.06
2022-12-27T07:06:27.994Z,101716.88
2022-12-27T07:08:56.270Z,101730.22
2022-12-27T07:11:24.563Z,101732.16
2022-12-27T07:13:54.584Z,101735.66
2022-12-27T07:16:24.969Z,101733.78
2022-12-27T07:18:54.337Z,101738.25
2022-12-27T07:21:24.563Z,101744.38
2022-12-27T07:23:52.080Z,101745.53
2022-12-27T07:26:26.053Z,101740.13
2022-12-27T07:28:55.461Z,101754.28
2022-12-27T07:31:24.606Z,101757.13
2022-12-27T07:33:53.165Z,101765.09
2022-12-27T07:36:23.332Z,101766.16
2022-12-27T07:38:51.044Z,101768.06
2022-12-27T07:41:18.584Z,101765.66
2022-12-27T07:43:46.267Z,101771.81
2022-12-27T07:46:16.989Z,101766.25
2022-12-27T07:48:45.186Z,101770.56
2022-12-27T07:51:13.193Z,101766.03
2022-12-27T07:53:41.042Z,101763.69
2022-12-27T07:56:14.090Z,101767.47
2022-12-27T07:58:45.824Z,101771.88
2022-12-27T08:01:15.357Z,101784.94
2022-12-27T08:03:43.479Z,101782.97
2022-12-27T08:06:20.235Z,101784.78
2022-12-27T08:08:47.791Z,101790.50
2022-12-27T08:11:15.362Z,101795.16
2022-12-27T08:13:42.854Z,101793.41
2022-12-27T08:16:16.727Z,101796.53
2022-12-27T08:18:44.676Z,101792.88
2022-12-27T08:22:02.567Z,101807.63
2022-12-27T08:24:30.052Z,101802.66
2022-12-27T08:26:57.550Z,101800.28
2022-12-27T08:29:26.191Z,101802.25
2022-12-27T08:31:53.748Z,101805.59
2022-12-27T08:34:21.333Z,101803.44
2022-12-27T08:36:56.247Z,101809.72
2022-12-27T08:39:24.622Z,101800.63
2022-12-27T08:41:55.005Z,101807.50
2022-12-27T08:44:23.667Z,101813.91
2022-12-27T08:46:51.299Z,101814.31
2022-12-27T08:49:19.511Z,101816.34
2022-12-27T08:51:47.211Z,101820.00
2022-12-27T08:54:14.709Z,101827.22
2022-12-27T08:56:42.200Z,101827.91
2022-12-27T08:59:09.613Z,101836.75
2022-12-27T09:01:37.265Z,101832.06
2022-12-27T09:04:05.111Z,101834.66
2022-12-27T09:06:32.744Z,101829.44
2022-12-27T09:09:01.488Z,101840.91
2022-12-27T09:11:31.791Z,101848.66
2022-12-27T09:14:02.586Z,101844.56
2022-12-27T09:16:31.311Z,101852.38
2022-12-27T09:18:59.770Z,101850.84
2022-12-27T09:21:31.801Z,101850.19
2022-12-27T09:23:59.642Z,101847.66
2022-12-27T09:26:29.616Z,101848.31
2022-12-27T09:28:58.520Z,101849.06
2022-12-27T09:31:26.558Z,101856.72
2022-12-27T09:34:08.525Z,101858.63
2022-12-27T09:36:55.384Z,101846.97
2022-12-27T09:39:25.969Z,101854.69
2022-12-27T09:45:18.302Z,101859.13
2022-12-27T09:48:02.852Z,101861.56
2022-12-27T09:50:38.450Z,101855.78
2022-12-27T09:53:17.573Z,101848.03
2022-12-27T09:55:53.509Z,101855.41
2022-12-27T09:58:22.743Z,101862.56
2022-12-27T10:00:56.025Z,101851.13
2022-12-27T10:03:28.521Z,101855.97
2022-12-27T10:06:09.504Z,101852.84
2022-12-27T10:08:44.929Z,101843.00
2022-12-27T10:11:36.744Z,101843.91
2022-12-27T10:14:22.103Z,101839.03
2022-12-27T10:17:27.188Z,101841.50
2022-12-27T10:20:04.801Z,101840.88
2022-12-27T10:22:40.888Z,101836.13
2022-12-27T10:25:14.081Z,101833.00
2022-12-27T10:27:41.891Z,101833.34
2022-12-27T10:30:15.666Z,101815.41
2022-12-27T10:32:43.992Z,101814.84
2022-12-27T10:35:16.323Z,101821.78
2022-12-27T10:37:45.192Z,101833.38
2022-12-27T10:40:21.142Z,101831.66
2022-12-27T10:43:17.188Z,101830.31
2022-12-27T10:45:44.848Z,101829.50
2022-12-27T10:48:41.524Z,101827.88
2022-12-27T10:51:18.123Z,101823.13
2022-12-27T10:53:45.392Z,101817.09
2022-12-27T10:56:27.861Z,101811.88
2022-12-27T10:59:21.045Z,101821.22
2022-12-27T11:02:19.200Z,101816.81
2022-12-27T11:05:01.188Z,101812.00
2022-12-27T11:07:33.853Z,101818.50
2022-12-27T11:10:15.784Z,101821.72
2022-12-27T11:13:06.985Z,101811.09
2022-12-27T11:15:40.872Z,101808.44
2022-12-27T11:18:18.124Z,101812.84
2022-12-27T11:20:50.908Z,101811.81
2022-12-27T11:23:21.301Z,101812.59
2022-12-27T11:25:55.603Z,101816.34
2022-12-27T11:28:33.954Z,101819.59
2022-12-27T11:31:09.174Z,101818.28
2022-12-27T11:33:41.288Z,101812.41
2022-12-27T11:36:12.419Z,101813.44
2022-12-27T11:38:44.690Z,101805.03
2022-12-27T11:41:12.037Z,101805.78
2022-12-27T11:43:53.277Z,101805.72
2022-12-27T11:46:59.008Z,101801.38
2022-12-27T11:49:33.867Z,101798.34
2022-12-27T11:52:19.339Z,101804.81
2022-12-27T11:55:18.895Z,101795.63
2022-12-27T11:57:53.043Z,101793.91
2022-12-27T12:00:27.244Z,101785.19
2022-12-27T12:03:35.337Z,101786.41
2022-12-27T12:06:34.658Z,101773.69
2022-12-27T12:09:08.038Z,101777.31
2022-12-27T12:11:55.648Z,101783.19
2022-12-27T12:14:56.476Z,101780.56
2022-12-27T12:17:41.798Z,101776.16
2022-12-27T12:20:32.267Z,101768.06
2022-12-27T12:23:13.761Z,101770.78
2022-12-27T12:26:20.675Z,101769.03
2022-12-27T12:29:00.812Z,101761.09
2022-12-27T12:32:02.078Z,101764.47
2022-12-27T12:34:51.977Z,101764.16
2022-12-27T12:37:22.074Z,101764.38
2022-12-27T12:40:26.609Z,101761.81
2022-12-27T12:43:12.523Z,101762.69
2022-12-27T12:45:39.836Z,101754.06
2022-12-27T12:48:07.280Z,101751.50
2022-12-27T12:51:08.526Z,101752.19
2022-12-27T12:53:53.286Z,101745.94
2022-12-27T12:56:48.695Z,101747.56
2022-12-27T12:59:36.902Z,101742.34
2022-12-27T13:02:41.805Z,101738.94
2022-12-27T13:05:22.761Z,101740.78
2022-12-27T13:08:08.103Z,101738.94
2022-12-27T13:11:02.253Z,101744.34
2022-12-27T13:13:45.100Z,101736.38
2022-12-27T13:16:31.147Z,101735.56
2022-12-27T13:19:17.154Z,101732.56
2022-12-27T13:22:12.566Z,101737.88
2022-12-27T13:24:45.611Z,101732.72
2022-12-27T13:27:35.454Z,101734.75
2022-12-27T13:30:25.061Z,101733.06
2022-12-27T13:33:11.988Z,101734.38
2022-12-27T13:35:54.230Z,101738.84
2022-12-27T13:38:21.592Z,101738.97
2022-12-27T13:41:13.267Z,101745.19
2022-12-27T13:44:14.439Z,101745.31
2022-12-27T13:47:21.133Z,101746.19
2022-12-27T13:50:03.520Z,101736.44
2022-12-27T13:52:57.598Z,101739.88
2022-12-27T13:55:55.890Z,101741.56
2022-12-27T13:58:29.174Z,101733.72
2022-12-27T14:01:05.577Z,101739.81
2022-12-27T14:03:39.043Z,101745.97
2022-12-27T14:06:29.884Z,101738.97
2022-12-27T14:09:34.402Z,101740.75
2022-12-27T14:12:27.562Z,101746.94
2022-12-27T14:15:00.194Z,101743.44
2022-12-27T14:17:39.871Z,101747.44
2022-12-27T14:20:49.173Z,101741.13
2022-12-27T14:23:42.629Z,101747.28
2022-12-27T14:26:12.270Z,101755.09
2022-12-27T14:29:02.639Z,101757.59
2022-12-27T14:31:57.921Z,101756.44
2022-12-27T14:34:48.427Z,101756.50
2022-12-27T14:38:04.024Z,101767.84
2022-12-27T14:40:58.442Z,101763.38
2022-12-27T14:43:29.472Z,101775.50
2022-12-27T14:46:15.510Z,101772.69
2022-12-27T14:48:54.929Z,101769.16
2022-12-27T14:52:10.530Z,101764.63
2022-12-27T14:54:52.031Z,101775.22
2022-12-27T14:57:33.845Z,101777.59
2022-12-27T15:00:16.884Z,101775.84
2022-12-27T15:03:09.097Z,101770.44
2022-12-27T15:06:18.057Z,101773.88
2022-12-27T15:09:19.869Z,101769.31
2022-12-27T15:12:04.938Z,101772.28
2022-12-27T15:14:55.238Z,101780.09
2022-12-27T15:18:01.529Z,101778.25
2022-12-27T15:20:43.733Z,101780.00
2022-12-27T15:23:46.383Z,101771.00
2022-12-27T15:26:34.833Z,101770.69
2022-12-27T15:29:27.561Z,101785.47
2022-12-27T15:32:10.204Z,101789.69
2022-12-27T15:34:46.556Z,101788.59
2022-12-27T15:37:55.035Z,101798.97
2022-12-27T15:40:25.315Z,101810.94
2022-12-27T15:43:08.649Z,101805.69
2022-12-27T15:46:00.739Z,101817.13
2022-12-27T15:48:53.127Z,101815.50
2022-12-27T15:52:02.431Z,101819.63
2022-12-27T15:54:53.442Z,101827.06
2022-12-27T15:57:21.300Z,101827.25
2022-12-27T15:59:54.061Z,101828.00
2022-12-27T16:02:24.862Z,101820.22
2022-12-27T16:05:01.793Z,101819.41
2022-12-27T16:07:44.329Z,101822.69
2022-12-27T16:10:32.207Z,101823.31
2022-12-27T16:13:25.539Z,101829.22
2022-12-27T16:15:54.425Z,101822.84
2022-12-27T16:18:21.860Z,101820.69
2022-12-27T16:20:55.141Z,101814.09
2022-12-27T16:23:24.623Z,101813.97
2022-12-27T16:26:15.823Z,101807.75
2022-12-27T16:28:57.143Z,101811.72
2022-12-27T16:31:31.102Z,101812.47
2022-12-27T16:34:09.954Z,101816.47
2022-12-27T16:36:44.697Z,101825.13
2022-12-27T16:39:45.782Z,101827.63
2022-12-27T16:42:13.531Z,101833.00
2022-12-27T16:44:57.512Z,101841.19
2022-12-27T16:47:47.096Z,101851.94
2022-12-27T16:50:29.245Z,101833.81
2022-12-27T16:53:15.140Z,101831.94
2022-12-27T16:55:47.126Z,101836.69
2022-12-27T16:58:21.923Z,101837.69
2022-12-27T17:00:54.686Z,101841.31
2022-12-27T17:03:22.738Z,101841.75
2022-12-27T17:06:30.082Z,101839.72
2022-12-27T17:08:42.582Z,101843.22
2022-12-27T17:11:26.053Z,101846.06
2022-12-27T17:13:58.259Z,101853.66
2022-12-27T17:16:32.512Z,101854.50
2022-12-27T17:19:03.560Z,101856.38
2022-12-27T17:21:32.885Z,101871.81
2022-12-27T17:24:10.171Z,101869.16
2022-12-27T17:26:59.292Z,101864.28
2022-12-27T17:30:04.009Z,101881.59
2022-12-27T17:32:50.123Z,101873.53
2022-12-27T17:35:45.709Z,101873.13
2022-12-27T17:38:37.883Z,101873.94
2022-12-27T17:41:56.426Z,101878.50
2022-12-27T17:44:39.512Z,101877.78
2022-12-27T17:47:27.015Z,101876.84
2022-12-27T17:49:59.197Z,101876.66
2022-12-27T17:52:45.477Z,101871.31
2022-12-27T17:55:51.913Z,101873.06
2022-12-27T17:58:20.322Z,101871.16
2022-12-27T18:00:57.962Z,101873.44
2022-12-27T18:03:39.402Z,101878.03
2022-12-27T18:06:07.440Z,101872.19
2022-12-27T18:08:36.147Z,101869.75
2022-12-27T18:11:06.006Z,101870.28
2022-12-27T18:13:38.590Z,101875.59
2022-12-27T18:16:24.445Z,101865.88
2022-12-27T18:19:18.441Z,101865.06
2022-12-27T18:21:57.555Z,101859.91
2022-12-27T18:24:33.027Z,101865.50
2022-12-27T18:27:06.599Z,101867.25
2022-12-27T18:29:38.898Z,101862.44
2022-12-27T18:32:09.464Z,101865.06
2022-12-27T18:34:55.245Z,101862.72
2022-12-27T18:37:26.257Z,101866.16
2022-12-27T18:39:57.923Z,101865.56
2022-12-27T18:42:31.364Z,101866.09
2022-12-27T18:45:33.690Z,101866.75
2022-12-27T18:48:04.646Z,101869.94
2022-12-27T18:50:34.408Z,101861.41
2022-12-27T18:53:26.331Z,101869.31
2022-12-27T18:56:04.626Z,101863.59
2022-12-27T18:58:33.359Z,101865.16
2022-12-27T19:01:04.189Z,101868.44
2022-12-27T19:03:38.228Z,101865.94
2022-12-27T19:06:32.031Z,101880.75
2022-12-27T19:08:59.364Z,101876.75
2022-12-27T19:11:33.044Z,101870.56
2022-12-27T19:14:02.142Z,101875.09
2022-12-27T19:16:34.645Z,101876.56
2022-12-27T19:19:20.435Z,101876.47
2022-12-27T19:21:47.837Z,101876.53
2022-12-27T19:24:28.159Z,101877.25
2022-12-27T19:26:58.315Z,101871.59
2022-12-27T19:30:16.766Z,101876.97
2022-12-27T19:32:44.272Z,101876.75
2022-12-27T19:35:13.765Z,101892.81
2022-12-27T19:37:41.194Z,101881.16
2022-12-27T19:40:14.756Z,101885.00
2022-12-27T19:42:43.651Z,101882.22
2022-12-27T19:45:20.832Z,101881.25
2022-12-27T19:47:51.977Z,101879.88
2022-12-27T19:50:19.509Z,101880.34
2022-12-27T19:52:49.105Z,101887.97
2022-12-27T19:55:27.264Z,101897.88
2022-12-27T19:57:55.816Z,101892.84
2022-12-27T20:00:25.298Z,101896.25
2022-12-27T20:02:53.289Z,101903.97
2022-12-27T20:06:12.948Z,101903.38
2022-12-27T20:08:42.666Z,101905.59
2022-12-27T20:11:15.928Z,101897.91
2022-12-27T20:13:43.220Z,101908.19
2022-12-27T20:16:13.602Z,101908.38
2022-12-27T20:18:41.861Z,101909.03
2022-12-27T20:21:17.404Z,101901.22
2022-12-27T20:23:45.079Z,101913.31
2022-12-27T20:26:16.367Z,101907.78
2022-12-27T20:28:44.084Z,101896.97
2022-12-27T20:31:15.544Z,101897.06
2022-12-27T20:33:53.498Z,101907.38
2022-12-27T20:36:22.457Z,101906.19
2022-12-27T20:38:50.335Z,101919.81
2022-12-27T20:41:20.846Z,101911.28
2022-12-27T20:43:58.961Z,101932.34
2022-12-27T20:46:27.043Z,101928.78
2022-12-27T20:48:56.285Z,101922.78
2022-12-27T20:51:27.636Z,101914.66
2022-12-27T20:53:57.746Z,101908.50
2022-12-27T20:56:25.736Z,101912.22
2022-12-27T20:58:53.966Z,101905.34
2022-12-27T21:01:24.499Z,101921.97
2022-12-27T21:03:52.249Z,101915.22
2022-12-27T21:06:22.536Z,101916.63
2022-12-27T21:08:56.582Z,101911.16
2022-12-27T21:11:30.404Z,101925.44
2022-12-27T21:13:59.788Z,101936.44
2022-12-27T21:16:29.935Z,101929.53
2022-12-27T21:18:58.724Z,101934.50
2022-12-27T21:21:28.937Z,101933.78
2022-12-27T21:23:58.201Z,101926.75
2022-12-27T21:26:30.819Z,101919.78
2022-12-27T21:29:00.144Z,101917.47
2022-12-27T21:31:28.789Z,101916.13
2022-12-27T21:33:56.716Z,101929.41
2022-12-27T21:36:26.893Z,101922.03
2022-12-27T21:38:55.647Z,101922.53
2022-12-27T21:41:25.983Z,101921.69
2022-12-27T21:43:54.705Z,101932.63
2022-12-27T21:46:27.768Z,101929.25
2022-12-27T21:49:02.124Z,101934.69
2022-12-27T21:51:31.269Z,101932.50
2022-12-27T21:53:59.427Z,101921.41
2022-12-27T21:56:27.139Z,101922.09
2022-12-27T21:58:59.179Z,101922.75
2022-12-27T22:01:29.960Z,101930.22
2022-12-27T22:03:59.623Z,101948.31
2022-12-27T22:06:30.514Z,101953.31
2022-12-27T22:09:00.811Z,101957.47
2022-12-27T22:11:29.845Z,101946.97
2022-12-27T22:13:58.013Z,101945.75
2022-12-27T22:16:36.217Z,101947.00
2022-12-27T22:19:12.642Z,101955.09
2022-12-27T22:21:41.980Z,101947.88
2022-12-27T22:24:13.286Z,101961.59
2022-12-27T22:26:48.783Z,101965.19
2022-12-27T22:29:17.444Z,101966.63
2022-12-27T22:32:15.180Z,101967.41
2022-12-27T22:34:42.916Z,101968.91
2022-12-27T22:37:10.625Z,101967.44
2022-12-27T22:39:38.243Z,101954.28
2022-12-27T22:42:06.033Z,101950.88
2022-12-27T22:44:33.696Z,101949.50
2022-12-27T22:49:49.403Z,101964.75
2022-12-27T22:52:17.229Z,101946.88
2022-12-27T22:55:07.137Z,101954.88
2022-12-27T22:57:35.089Z,101966.72
2022-12-27T23:00:04.895Z,101963.31
2022-12-27T23:02:34.274Z,101962.38
2022-12-27T23:05:02.990Z,101949.69
2022-12-27T23:08:04.154Z,101945.78
2022-12-27T23:10:22.039Z,101953.22
2022-12-27T23:12:49.789Z,101947.41
2022-12-27T23:15:43.984Z,101949.50
2022-12-27T23:18:11.747Z,101947.34
2022-12-27T23:20:39.451Z,101942.91
2022-12-27T23:23:27.212Z,101935.13
2022-12-27T23:27:13.602Z,101937.47
2022-12-27T23:29:45.046Z,101922.06
2022-12-27T23:32:12.721Z,101925.19
2022-12-27T23:34:40.266Z,101926.16
2022-12-27T23:37:08.027Z,101916.25
2022-12-27T23:39:35.532Z,101919.00
2022-12-27T23:42:04.042Z,101917.50
2022-12-27T23:44:34.858Z,101914.94
2022-12-27T23:47:06.095Z,101918.91
2022-12-27T23:49:34.261Z,101908.75
2022-12-27T23:52:02.403Z,101907.00
2022-12-27T23:54:44.907Z,101911.06
2022-12-27T23:57:19.905Z,101908.03
2022-12-27T23:59:51.806Z,101915.78
